AirNav   Phillips 66 Aviation Fuel
 
 1596 users online  

KCRT Z M Jack Stell Field Airport
Crossett, Arkansas, USA

GOING TO CROSSETT?


FAA INFORMATION EFFECTIVE 24 MAY 2018

Location

FAA Identifier: CRT
Lat/Long: 33-10-42.0000N / 091-52-48.7000W
33-10.700000N / 091-52.811667W
33.1783333 / -91.8801944
(estimated)
Elevation: 183.5 ft. / 55.9 m (surveyed)
Variation: 02E (2005)
From city: 5 miles NE of CROSSETT, AR
Time zone: UTC -5 (UTC -6 during Standard Time)
Zip code: 71635

Airport Operations

Airport use: Open to the public
Activation date: 06/1951
Control tower: no
ARTCC: MEMPHIS CENTER
FSS: JONESBORO FLIGHT SERVICE STATION
NOTAMs facility: JBR (NOTAM-D service available)
Attendance: MON-FRI IREG
Wind indicator: lighted
Segmented circle: yes
Lights: SS-SR
Beacon: white-green (lighted land airport)
Operates sunset to sunrise.

Airport Communications

CTAF/UNICOM: 122.8
  • APCH/DEP SERVICE PRVDD BY MEMPHIS ARTCC ON FREQS 135.875/269.35 (GREENVILLE RCAG & PINE BLUFF RCAG).

Nearby radio navigation aids

VOR radial/distance  VOR name  Freq  Var
MONr196/24.5MONTICELLO VOR/DME111.6004E

 
NDB name  Hdg/Dist  Freq  Var  ID
BASTROP357/25.432903EBQP -... --.- .--.

Airport Services

Fuel available: 100LL JET-A
SELF SERVE FUEL AVBL 24 HRS WITH CREDIT CARD.
Parking: tiedowns
Bottled oxygen: NONE
Bulk oxygen: NONE

Runway Information

Runway 5/23

Dimensions: 5010 x 75 ft. / 1527 x 23 m
Surface: asphalt, in fair condition
Weight bearing capacity: 
Single wheel: 19.0
Runway edge lights: medium intensity
RUNWAY 5  RUNWAY 23
Latitude: 33-10.444497N33-10.955968N
Longitude: 091-53.196535W091-52.425142W
Elevation: 177.7 ft.183.1 ft.
Gradient: 0.2%0.2%
Traffic pattern: leftleft
Runway heading: 050 magnetic, 052 true230 magnetic, 232 true
Markings: basic, in good conditionbasic, in good condition
Visual slope indicator: 2-light PAPI on left (3.25 degrees glide path)2-light PAPI on left (3.25 degrees glide path)
Touchdown point: yes, no lightsyes, no lights
Obstructions: 45 ft. trees, 600 ft. from runway, 300 ft. left of centerline, 8:1 slope to clearnone

Airport Ownership and Management from official FAA records

Ownership: Publicly-owned
Owner: CITY OF CROSSETT
201 MAIN
CROSSETT, AR 71635
Phone 870-364-4131
Manager: TODD FREEMAN
PO BOX 637
CROSSETT, AR 71635
Phone 870-304-3313

Airport Operational Statistics

Aircraft based on the field: 13
Single engine airplanes: 12
Multi engine airplanes: 1
    
Aircraft operations: avg 45/day *
72% local general aviation
27% transient general aviation
<1% military
<1% air taxi
* for 12-month period ending 31 August 2016

Additional Remarks

MIDFIELD TWY CLSD TO ACFT OVER 6000 LBS.

Instrument Procedures

NOTE: All procedures below are presented as PDF files. If you need a reader for these files, you should download the free Adobe Reader.

NOT FOR NAVIGATION. Please procure official charts for flight.
FAA instrument procedures published for use from 24 May 2018 at 0901Z to 21 June 2018 at 0900Z.

 
IAPs - Instrument Approach Procedures
RNAV (GPS) RWY 23   download (187KB)
VOR-A   download (145KB)
NOTE: Special Take-Off Minimums/Departure Procedures apply   download (131KB)

Other nearby airports with instrument procedures:

3M9 - Warren Municipal Airport (25 nm NW)
KBQP - Morehouse Memorial Airport (25 nm S)
KLLQ - Monticello Municipal Airport/Ellis Field (28 nm N)
M32 - Lake Village Municipal Airport (30 nm E)
7M1 - Mc Gehee Municipal Airport (37 nm NE)
 
Loc | Ops | Rwys | IFR | FBO | Links
Com | Nav | Svcs | Stats | Notes

AirNav Hotels Sweepstakes
 
Area around KCRT (Z M Jack Stell Field Airport)
 
Road maps at: MapQuest Bing Google
 
Aerial photo
WARNING: Photo may not be current or correct
Aerial photo of KCRT (Z M Jack Stell Field Airport)
Photo courtesy of the Arkansas Department of Aeronautics
Taken in the Spring of 2007

Do you have a better or more recent aerial photo of Z M Jack Stell Field Airport that you would like to share? If so, please send us your photo.

 
Sectional chart

 
Airport distance calculator
Flying to Z M Jack Stell Field Airport? Find the distance to fly.

From to KCRT

Sunrise and sunset
Times for 24-May-2018
 Local
(UTC-5)
 Zulu
(UTC)
Morning civil twilight05:3510:35
Sunrise06:0311:03
Sunset20:0501:05
Evening civil twilight20:3301:33

Current date and time
Zulu (UTC)  24-May-2018 17:32:13
Local (UTC-5)  24-May-2018 12:32:13
 
METAR
KBQP 
25nm S 
241715Z AUTO 00000KT 10SM SCT025 SCT033 31/23 A3010 RMK AO2 T03070226
KLLQ 
28nm N 
241653Z AUTO VRB04KT 10SM CLR 29/22 A3010 RMK AO2 SLP190 T02890222
KMLU 
40nm S 
241653Z 05005KT 10SM SCT019 29/23 A3011 RMK AO2 SLP194 T02890228
KELD 
47nm W 
241653Z AUTO 00000KT 10SM CLR 28/21 A3011 RMK AO2 SLP193 T02780211
KGLH 
49nm NE 
241653Z 00000KT 10SM FEW021 28/21 A3010 RMK AO2 SLP198 T02780206
TAF
KLLQ 
28nm N 
241315Z 2413/2512 VRB04KT P6SM BKN110 FM250200 00000KT P6SM OVC050 TEMPO 2508/2512 4SM BR
NOTAMs
Click for the latest NOTAMs
NOTAMs are issued by the DoD/FAA and will open in a separate window not controlled by AirNav.

 

 
 

FBO, Fuel Providers, and Aircraft Ground Support

  
 Business Name 
 
 Contact 
 
 Services / Description 
 
Fuel Prices
 
Comments
  
Crossett Airport Commission 870-304-3313
[email]
Aviation fuel, Aircraft parking (ramp or tiedown), Hangar leasing / sales, Passenger terminal and lounge, Pilots lounge / snooze room, Public telephone, ...

More info about Crossett Airport Commission
independent
100LL Jet A
SS $4.25 $3.70 
 Updated 17-May-2018
 
   2 read write
SS=Self service
Update Fuel Prices
 

Would you like to see your business listed on this page?

 If your business provides an interesting product or service to pilots, flight crews, aircraft, or users of the Z M Jack Stell Field Airport, you should consider listing it here.  To start the listing process, click on the button below
 
Add a business
 

Other Pages about Z M Jack Stell Field Airport

Update a link
 
Copyright © AirNav, LLC. All rights reserved. Privacy Policy  Contact